createdAt,value
2023-03-29T00:02:00.951Z,99.90
2023-03-29T00:04:27.836Z,99.90
2023-03-29T00:06:54.904Z,99.90
2023-03-29T00:09:21.747Z,99.90
2023-03-29T00:11:48.399Z,99.90
2023-03-29T00:14:15.196Z,99.90
2023-03-29T00:16:42.188Z,99.90
2023-03-29T00:19:09.075Z,99.90
2023-03-29T00:21:35.780Z,99.90
2023-03-29T00:24:02.445Z,99.90
2023-03-29T00:26:29.076Z,99.90
2023-03-29T00:28:55.880Z,99.90
2023-03-29T00:31:22.614Z,99.90
2023-03-29T00:33:49.309Z,99.90
2023-03-29T00:36:16.189Z,99.90
2023-03-29T00:38:43.086Z,99.90
2023-03-29T00:41:09.825Z,99.90
2023-03-29T00:43:55.414Z,99.90
2023-03-29T00:46:22.696Z,99.90
2023-03-29T00:48:51.634Z,99.90
2023-03-29T00:51:19.541Z,99.90
2023-03-29T00:53:49.125Z,99.90
2023-03-29T00:56:19.992Z,99.90
2023-03-29T00:59:04.047Z,99.90
2023-03-29T01:01:42.434Z,99.90
2023-03-29T01:04:18.045Z,99.90
2023-03-29T01:06:56.166Z,99.90
2023-03-29T01:09:23.920Z,99.90
2023-03-29T01:11:55.643Z,99.90
2023-03-29T01:14:28.446Z,99.90
2023-03-29T01:16:55.346Z,99.90
2023-03-29T01:19:25.056Z,99.90
2023-03-29T01:21:54.931Z,99.90
2023-03-29T01:24:38.059Z,99.90
2023-03-29T01:27:23.529Z,99.90
2023-03-29T01:29:54.110Z,99.90
2023-03-29T01:32:23.351Z,99.90
2023-03-29T01:34:52.790Z,99.90
2023-03-29T01:37:37.555Z,99.90
2023-03-29T01:40:06.124Z,99.90
2023-03-29T01:42:51.377Z,99.90
2023-03-29T01:45:17.963Z,99.90
2023-03-29T01:47:50.693Z,99.90
2023-03-29T01:50:29.450Z,99.90
2023-03-29T01:52:56.413Z,99.90
2023-03-29T01:55:24.874Z,99.90
2023-03-29T01:57:54.105Z,99.90
2023-03-29T02:00:25.919Z,99.90
2023-03-29T02:02:54.170Z,99.90
2023-03-29T02:05:22.958Z,99.90
2023-03-29T02:07:50.575Z,99.90
2023-03-29T02:10:17.516Z,99.90
2023-03-29T02:12:44.308Z,99.90
2023-03-29T02:15:12.310Z,99.90
2023-03-29T02:17:39.144Z,99.90
2023-03-29T02:20:14.931Z,99.90
2023-03-29T02:22:45.734Z,99.90
2023-03-29T02:25:12.958Z,99.90
2023-03-29T02:27:39.731Z,99.90
2023-03-29T02:30:08.101Z,99.90
2023-03-29T02:33:00.827Z,99.90
2023-03-29T02:35:38.533Z,99.90
2023-03-29T02:38:07.844Z,99.90
2023-03-29T02:40:35.349Z,99.90
2023-03-29T02:43:03.183Z,99.90
2023-03-29T02:45:30.110Z,99.90
2023-03-29T02:47:58.492Z,99.90
2023-03-29T02:50:26.996Z,99.90
2023-03-29T02:52:55.171Z,99.90
2023-03-29T02:55:23.555Z,99.90
2023-03-29T02:57:50.230Z,99.90
2023-03-29T03:00:18.827Z,99.90
2023-03-29T03:02:46.735Z,99.90
2023-03-29T03:05:13.811Z,99.90
2023-03-29T03:07:40.623Z,99.90
2023-03-29T03:10:08.302Z,99.90
2023-03-29T03:12:35.021Z,99.90
2023-03-29T03:15:01.868Z,99.90
2023-03-29T03:17:28.592Z,99.90
2023-03-29T03:19:55.245Z,99.90
2023-03-29T03:22:21.893Z,99.90
2023-03-29T03:24:49.283Z,99.90
2023-03-29T03:27:16.596Z,99.90
2023-03-29T03:29:44.035Z,99.90
2023-03-29T03:32:12.398Z,99.90
2023-03-29T03:34:39.003Z,99.90
2023-03-29T03:37:05.573Z,99.90
2023-03-29T03:39:32.634Z,99.90
2023-03-29T03:41:59.237Z,99.90
2023-03-29T03:44:25.967Z,99.90
2023-03-29T03:46:52.617Z,99.90
2023-03-29T03:49:19.366Z,99.90
2023-03-29T03:51:46.358Z,99.90
2023-03-29T03:54:13.078Z,99.90
2023-03-29T03:56:39.849Z,99.90
2023-03-29T03:59:07.202Z,99.90
2023-03-29T04:01:35.302Z,99.90
2023-03-29T04:04:02.070Z,99.90
2023-03-29T04:06:30.673Z,99.90
2023-03-29T04:08:57.872Z,99.90
2023-03-29T04:11:24.584Z,99.90
2023-03-29T04:13:51.673Z,99.90
2023-03-29T04:16:18.311Z,99.90
2023-03-29T04:18:45.212Z,99.90
2023-03-29T04:21:12.020Z,99.90
2023-03-29T04:23:38.678Z,99.90
2023-03-29T04:26:05.410Z,99.90
2023-03-29T04:28:32.209Z,99.90
2023-03-29T04:30:58.859Z,99.90
2023-03-29T04:33:25.543Z,99.90
2023-03-29T04:35:52.632Z,99.90
2023-03-29T04:38:23.365Z,99.90
2023-03-29T04:40:50.380Z,99.90
2023-03-29T04:43:17.057Z,99.90
2023-03-29T04:45:43.632Z,99.90
2023-03-29T04:48:10.735Z,99.90
2023-03-29T04:50:37.549Z,99.90
2023-03-29T04:53:04.214Z,99.90
2023-03-29T04:55:30.841Z,99.90
2023-03-29T04:57:57.519Z,99.90
2023-03-29T05:00:29.762Z,99.90
2023-03-29T05:02:57.870Z,99.90
2023-03-29T05:05:24.778Z,99.90
2023-03-29T05:07:51.502Z,99.90
2023-03-29T05:10:18.258Z,99.90
2023-03-29T05:12:44.988Z,99.90
2023-03-29T05:15:11.760Z,99.90
2023-03-29T05:17:38.487Z,99.90
2023-03-29T05:20:11.769Z,99.90
2023-03-29T05:22:39.029Z,99.90
2023-03-29T05:25:06.027Z,99.90
2023-03-29T05:27:33.503Z,99.90
2023-03-29T05:30:01.225Z,99.90
2023-03-29T05:32:28.073Z,99.90
2023-03-29T05:34:54.776Z,99.90
2023-03-29T05:37:21.488Z,99.90
2023-03-29T05:39:49.609Z,99.90
2023-03-29T05:42:18.465Z,99.90
2023-03-29T05:44:45.078Z,99.90
2023-03-29T05:47:11.999Z,99.90
2023-03-29T05:49:38.740Z,99.90
2023-03-29T05:52:06.760Z,99.90
2023-03-29T05:54:33.435Z,99.90
2023-03-29T05:57:00.219Z,99.90
2023-03-29T05:59:29.658Z,99.90
2023-03-29T06:01:56.625Z,99.90
2023-03-29T06:04:24.583Z,99.90
2023-03-29T06:06:53.072Z,99.90
2023-03-29T06:09:19.968Z,99.90
2023-03-29T06:11:47.716Z,99.90
2023-03-29T06:14:14.652Z,99.90
2023-03-29T06:16:42.796Z,99.90
2023-03-29T06:19:09.693Z,99.90
2023-03-29T06:21:36.474Z,99.90
2023-03-29T06:24:04.096Z,99.90
2023-03-29T06:26:31.344Z,99.90
2023-03-29T06:28:58.229Z,99.90
2023-03-29T06:31:25.152Z,99.90
2023-03-29T06:33:51.884Z,99.90
2023-03-29T06:36:20.148Z,99.90
2023-03-29T06:38:47.122Z,99.90
2023-03-29T06:41:14.914Z,99.90
2023-03-29T06:43:41.939Z,99.90
2023-03-29T06:46:12.051Z,99.90
2023-03-29T06:48:39.314Z,99.90
2023-03-29T06:51:07.578Z,99.90
2023-03-29T06:53:34.824Z,99.90
2023-03-29T06:56:05.460Z,99.90
2023-03-29T06:58:32.575Z,99.90
2023-03-29T07:01:02.767Z,99.90
2023-03-29T07:03:30.026Z,99.90
2023-03-29T07:06:02.787Z,99.90
2023-03-29T07:08:31.637Z,99.90
2023-03-29T07:10:59.299Z,99.90
2023-03-29T07:13:26.360Z,99.90
2023-03-29T07:15:53.393Z,99.90
2023-03-29T07:18:20.345Z,99.90
2023-03-29T07:20:48.403Z,99.90
2023-03-29T07:23:15.410Z,99.90
2023-03-29T07:25:42.140Z,99.90
2023-03-29T07:28:09.220Z,99.90
2023-03-29T07:30:37.287Z,99.90
2023-03-29T07:33:04.483Z,99.90
2023-03-29T07:35:31.311Z,99.90
2023-03-29T07:37:58.634Z,99.90
2023-03-29T07:40:26.291Z,99.90
2023-03-29T07:42:54.570Z,99.90
2023-03-29T07:45:26.887Z,99.90
2023-03-29T07:47:58.411Z,99.90
2023-03-29T07:50:25.724Z,99.90
2023-03-29T07:52:52.767Z,99.90
2023-03-29T07:55:19.855Z,99.60
2023-03-29T07:57:46.529Z,99.20
2023-03-29T08:00:16.864Z,99.10
2023-03-29T08:02:44.660Z,98.30
2023-03-29T08:05:12.932Z,97.80
2023-03-29T08:07:40.997Z,98.00
2023-03-29T08:10:09.302Z,98.20
2023-03-29T08:12:37.288Z,98.30
2023-03-29T08:15:05.513Z,98.00
2023-03-29T08:17:32.539Z,98.30
2023-03-29T08:19:59.287Z,97.80
2023-03-29T08:22:26.013Z,96.30
2023-03-29T08:24:53.018Z,95.00
2023-03-29T08:27:19.903Z,94.10
2023-03-29T08:29:46.702Z,94.30
2023-03-29T08:32:13.427Z,94.50
2023-03-29T08:34:40.093Z,93.60
2023-03-29T08:37:06.920Z,94.10
2023-03-29T08:39:33.661Z,94.40
2023-03-29T08:42:00.401Z,94.10
2023-03-29T08:44:30.048Z,93.50
2023-03-29T08:47:05.113Z,94.20
2023-03-29T08:49:31.846Z,93.50
2023-03-29T08:52:01.321Z,93.60
2023-03-29T08:54:29.514Z,93.10
2023-03-29T08:57:02.162Z,94.00
2023-03-29T08:59:33.194Z,92.50
2023-03-29T09:02:01.373Z,91.30
2023-03-29T09:04:29.474Z,90.80
2023-03-29T09:06:56.287Z,91.80
2023-03-29T09:09:24.023Z,91.10
2023-03-29T09:12:11.543Z,91.60
2023-03-29T09:14:44.018Z,91.60
2023-03-29T09:17:16.971Z,91.10
2023-03-29T09:19:46.623Z,89.10
2023-03-29T09:22:23.319Z,89.20
2023-03-29T09:24:56.394Z,88.80
2023-03-29T09:27:42.800Z,90.70
2023-03-29T09:30:16.492Z,88.50
2023-03-29T09:32:49.132Z,86.20
2023-03-29T09:35:21.681Z,88.80
2023-03-29T09:37:50.262Z,86.60
2023-03-29T09:40:20.255Z,86.80
2023-03-29T09:42:49.458Z,87.30
2023-03-29T09:45:16.791Z,87.60
2023-03-29T09:47:46.997Z,87.10
2023-03-29T09:50:29.695Z,84.00
2023-03-29T09:52:58.275Z,85.70
2023-03-29T09:55:29.491Z,85.70
2023-03-29T09:57:59.678Z,84.30
2023-03-29T10:00:26.914Z,82.50
2023-03-29T10:02:54.915Z,84.70
2023-03-29T10:05:24.854Z,83.30
2023-03-29T10:07:53.134Z,82.10
2023-03-29T10:10:31.183Z,82.20
2023-03-29T10:13:24.198Z,84.80
2023-03-29T10:16:08.336Z,82.40
2023-03-29T10:18:42.695Z,82.70
2023-03-29T10:21:12.405Z,81.40
2023-03-29T10:23:40.287Z,81.50
2023-03-29T10:26:11.806Z,79.50
2023-03-29T10:28:39.416Z,79.10
2023-03-29T10:31:08.422Z,81.30
2023-03-29T10:33:36.356Z,80.40
2023-03-29T10:36:05.604Z,79.50
2023-03-29T10:38:34.962Z,81.30
2023-03-29T10:41:10.565Z,79.40
2023-03-29T10:43:45.544Z,81.40
2023-03-29T10:46:19.907Z,81.30
2023-03-29T10:48:58.066Z,81.20
2023-03-29T10:51:27.969Z,81.10
2023-03-29T10:53:56.438Z,81.30
2023-03-29T10:56:33.376Z,79.40
2023-03-29T10:59:09.579Z,81.30
2023-03-29T11:01:56.602Z,81.70
2023-03-29T11:04:23.870Z,82.00
2023-03-29T11:07:09.703Z,82.20
2023-03-29T11:09:55.937Z,82.40
2023-03-29T11:12:29.944Z,80.40
2023-03-29T11:15:09.943Z,80.40
2023-03-29T11:17:52.825Z,79.20
2023-03-29T11:20:22.441Z,79.40
2023-03-29T11:22:53.662Z,77.10
2023-03-29T11:25:53.767Z,79.60
2023-03-29T11:28:23.827Z,77.70
2023-03-29T11:31:11.071Z,77.70
2023-03-29T11:33:38.152Z,76.20
2023-03-29T11:36:21.358Z,76.80
2023-03-29T11:39:11.537Z,75.80
2023-03-29T11:41:40.584Z,74.30
2023-03-29T11:44:14.190Z,75.60
2023-03-29T11:46:44.438Z,76.80
2023-03-29T11:49:17.404Z,75.40
2023-03-29T11:51:46.703Z,76.70
2023-03-29T11:54:25.479Z,76.20
2023-03-29T11:56:56.220Z,75.10
2023-03-29T11:59:31.552Z,74.80
2023-03-29T12:02:21.465Z,75.10
2023-03-29T12:04:52.863Z,73.40
2023-03-29T12:07:24.333Z,74.20
2023-03-29T12:09:53.872Z,72.30
2023-03-29T12:12:24.749Z,70.40
2023-03-29T12:15:11.426Z,72.70
2023-03-29T12:17:42.043Z,71.80
2023-03-29T12:20:23.517Z,69.60
2023-03-29T12:22:51.156Z,69.80
2023-03-29T12:25:23.244Z,68.30
2023-03-29T12:27:56.488Z,70.30
2023-03-29T12:30:23.846Z,70.50
2023-03-29T12:33:15.920Z,68.60
2023-03-29T12:35:49.104Z,68.00
2023-03-29T12:38:25.306Z,70.30
2023-03-29T12:41:16.563Z,70.10
2023-03-29T12:43:44.816Z,70.90
2023-03-29T12:46:20.435Z,71.40
2023-03-29T12:48:50.974Z,70.80
2023-03-29T12:51:19.745Z,71.60
2023-03-29T12:53:50.644Z,73.00
2023-03-29T12:56:19.731Z,71.10
2023-03-29T12:58:49.906Z,73.10
2023-03-29T13:01:23.488Z,72.60
2023-03-29T13:03:52.188Z,72.80
2023-03-29T13:06:27.956Z,72.90
2023-03-29T13:09:17.899Z,72.40
2023-03-29T13:11:45.643Z,73.60
2023-03-29T13:14:14.823Z,73.30
2023-03-29T13:16:41.892Z,73.70
2023-03-29T13:19:11.782Z,75.30
2023-03-29T13:21:48.038Z,77.70
2023-03-29T13:24:29.938Z,80.80
2023-03-29T13:27:06.907Z,81.90
2023-03-29T13:29:42.647Z,82.20
2023-03-29T13:32:18.345Z,80.40
2023-03-29T13:34:48.355Z,81.90
2023-03-29T13:37:30.051Z,82.60
2023-03-29T13:39:56.988Z,82.60
2023-03-29T13:42:24.074Z,82.30
2023-03-29T13:44:50.908Z,82.30
2023-03-29T13:47:33.187Z,83.50
2023-03-29T13:50:01.032Z,81.30
2023-03-29T13:52:29.978Z,82.90
2023-03-29T13:55:03.084Z,83.70
2023-03-29T13:57:53.555Z,84.60
2023-03-29T14:00:25.353Z,84.70
2023-03-29T14:02:54.843Z,85.40
2023-03-29T14:05:24.552Z,85.00
2023-03-29T14:07:53.125Z,84.90
2023-03-29T14:10:25.936Z,85.70
2023-03-29T14:12:53.662Z,85.80
2023-03-29T14:15:24.667Z,86.40
2023-03-29T14:18:00.264Z,83.90
2023-03-29T14:20:27.939Z,85.00
2023-03-29T14:22:54.721Z,84.10
2023-03-29T14:25:22.908Z,85.60
2023-03-29T14:27:49.943Z,85.00
2023-03-29T14:30:27.492Z,86.40
2023-03-29T14:32:54.676Z,88.70
2023-03-29T14:35:27.194Z,89.60
2023-03-29T14:37:53.939Z,90.90
2023-03-29T14:40:21.158Z,90.90
2023-03-29T14:42:48.693Z,90.90
2023-03-29T14:45:16.875Z,91.50
2023-03-29T14:47:44.655Z,92.00
2023-03-29T14:50:28.594Z,91.10
2023-03-29T14:52:56.717Z,90.50
2023-03-29T14:55:27.242Z,90.50
2023-03-29T14:57:54.519Z,90.90
2023-03-29T15:00:41.031Z,90.60
2023-03-29T15:03:13.133Z,90.40
2023-03-29T15:05:41.045Z,89.60
2023-03-29T15:08:10.467Z,88.60
2023-03-29T15:10:38.043Z,89.20
2023-03-29T15:13:06.723Z,90.30
2023-03-29T15:15:35.898Z,90.20
2023-03-29T15:18:04.013Z,90.60
2023-03-29T15:20:34.520Z,90.80
2023-03-29T15:23:04.204Z,90.90
2023-03-29T15:25:35.157Z,90.80
2023-03-29T15:28:02.002Z,90.70
2023-03-29T15:30:32.116Z,90.10
2023-03-29T15:33:08.023Z,90.10
2023-03-29T15:35:34.822Z,90.50
2023-03-29T15:38:03.501Z,90.70
2023-03-29T15:40:30.352Z,91.30
2023-03-29T15:42:57.128Z,91.00
2023-03-29T15:45:23.807Z,91.20
2023-03-29T15:47:50.539Z,91.50
2023-03-29T15:50:17.374Z,91.00
2023-03-29T15:52:44.087Z,91.60
2023-03-29T15:55:11.413Z,91.80
2023-03-29T15:57:39.721Z,91.90
2023-03-29T16:00:08.007Z,91.60
2023-03-29T16:02:35.254Z,91.90
2023-03-29T16:05:04.286Z,92.10
2023-03-29T16:07:31.021Z,91.60
2023-03-29T16:09:57.792Z,91.60
2023-03-29T16:12:25.716Z,91.70
2023-03-29T16:14:52.356Z,91.70
2023-03-29T16:17:19.045Z,91.30
2023-03-29T16:19:45.892Z,91.10
2023-03-29T16:22:12.567Z,91.30
2023-03-29T16:24:42.098Z,91.40
2023-03-29T16:27:08.795Z,91.60
2023-03-29T16:29:35.690Z,91.70
2023-03-29T16:32:04.036Z,91.90
2023-03-29T16:34:32.801Z,91.80
2023-03-29T16:36:59.383Z,91.80
2023-03-29T16:39:26.099Z,92.00
2023-03-29T16:41:52.759Z,92.30
2023-03-29T16:44:23.954Z,92.60
2023-03-29T16:46:52.697Z,92.50
2023-03-29T16:49:19.411Z,92.60
2023-03-29T16:51:49.021Z,92.50
2023-03-29T16:54:17.250Z,92.90
2023-03-29T16:56:44.078Z,92.80
2023-03-29T16:59:11.990Z,92.90
2023-03-29T17:01:40.788Z,92.90
2023-03-29T17:04:07.788Z,92.80
2023-03-29T17:06:34.649Z,92.90
2023-03-29T17:09:01.275Z,93.10
2023-03-29T17:11:28.194Z,93.40
2023-03-29T17:13:55.153Z,93.50
2023-03-29T17:16:21.975Z,93.70
2023-03-29T17:18:48.847Z,94.10
2023-03-29T17:21:15.799Z,94.30
2023-03-29T17:23:42.536Z,94.60
2023-03-29T17:26:09.256Z,94.70
2023-03-29T17:28:36.248Z,94.80
2023-03-29T17:31:03.927Z,94.80
2023-03-29T17:33:31.180Z,95.50
2023-03-29T17:35:57.881Z,97.00
2023-03-29T17:38:26.165Z,97.00
2023-03-29T17:40:53.464Z,97.90
2023-03-29T17:43:20.846Z,99.10
2023-03-29T17:45:53.951Z,99.40
2023-03-29T17:48:21.105Z,98.90
2023-03-29T17:50:47.828Z,99.30
2023-03-29T17:53:14.511Z,99.80
2023-03-29T17:55:41.385Z,99.90
2023-03-29T17:58:08.356Z,99.90
2023-03-29T18:00:35.694Z,99.90
2023-03-29T18:03:02.419Z,99.90
2023-03-29T18:05:29.250Z,99.90
2023-03-29T18:07:56.357Z,99.90
2023-03-29T18:10:24.763Z,99.80
2023-03-29T18:12:51.807Z,99.70
2023-03-29T18:15:18.537Z,99.50
2023-03-29T18:17:48.273Z,99.90
2023-03-29T18:20:16.194Z,99.90
2023-03-29T18:22:46.695Z,99.90
2023-03-29T18:25:14.648Z,99.90
2023-03-29T18:27:41.356Z,99.90
2023-03-29T18:30:08.803Z,99.90
2023-03-29T18:32:36.043Z,99.90
2023-03-29T18:35:03.391Z,99.90
2023-03-29T18:37:30.160Z,99.90
2023-03-29T18:39:58.064Z,99.90
2023-03-29T18:42:25.602Z,99.90
2023-03-29T18:44:54.499Z,99.90
2023-03-29T18:47:21.553Z,99.90
2023-03-29T18:49:48.491Z,99.90
2023-03-29T18:52:15.250Z,99.90
2023-03-29T18:54:44.383Z,99.90
2023-03-29T18:57:11.651Z,99.90
2023-03-29T18:59:38.560Z,99.90
2023-03-29T19:02:05.393Z,99.90
2023-03-29T19:04:35.106Z,99.90
2023-03-29T19:07:02.036Z,99.90
2023-03-29T19:09:29.664Z,99.90
2023-03-29T19:11:56.432Z,99.90
2023-03-29T19:14:26.063Z,99.90
2023-03-29T19:16:53.121Z,99.90
2023-03-29T19:19:21.474Z,99.90
2023-03-29T19:21:48.788Z,99.90
2023-03-29T19:24:16.199Z,99.90
2023-03-29T19:26:44.468Z,99.90
2023-03-29T19:29:14.861Z,99.90
2023-03-29T19:31:41.637Z,99.90
2023-03-29T19:34:11.002Z,99.90
2023-03-29T19:36:38.419Z,99.90
2023-03-29T19:39:05.735Z,99.90
2023-03-29T19:41:32.476Z,99.90
2023-03-29T19:43:59.154Z,99.90
2023-03-29T19:46:27.757Z,99.90
2023-03-29T19:48:56.130Z,99.90
2023-03-29T19:51:23.503Z,99.90
2023-03-29T19:53:50.387Z,99.90
2023-03-29T19:56:19.145Z,99.90
2023-03-29T19:58:48.148Z,99.90
2023-03-29T20:01:20.368Z,99.90
2023-03-29T20:03:48.833Z,99.90
2023-03-29T20:06:16.705Z,99.90
2023-03-29T20:08:43.951Z,99.90
2023-03-29T20:11:11.572Z,99.90
2023-03-29T20:13:39.289Z,99.90
2023-03-29T20:16:06.642Z,99.90
2023-03-29T20:18:33.323Z,99.90
2023-03-29T20:21:01.709Z,99.90
2023-03-29T20:23:31.879Z,99.90
2023-03-29T20:26:01.096Z,99.90
2023-03-29T20:28:27.752Z,99.90
2023-03-29T20:30:54.382Z,99.90
2023-03-29T20:33:21.632Z,99.90
2023-03-29T20:35:49.278Z,99.90
2023-03-29T20:38:16.171Z,99.90
2023-03-29T20:40:42.853Z,99.90
2023-03-29T20:43:18.463Z,99.90
2023-03-29T20:45:52.749Z,99.90
2023-03-29T20:48:23.232Z,99.90
2023-03-29T20:50:51.179Z,99.90
2023-03-29T20:53:18.525Z,99.90
2023-03-29T20:55:45.913Z,99.90
2023-03-29T20:58:12.871Z,99.90
2023-03-29T21:00:40.423Z,99.90
2023-03-29T21:03:08.333Z,99.90
2023-03-29T21:05:35.790Z,99.90
2023-03-29T21:08:04.436Z,99.90
2023-03-29T21:10:31.370Z,99.90
2023-03-29T21:13:02.579Z,99.90
2023-03-29T21:15:31.244Z,99.90
2023-03-29T21:17:58.123Z,99.90
2023-03-29T21:20:24.949Z,99.90
2023-03-29T21:22:51.703Z,99.90
2023-03-29T21:25:18.566Z,99.90
2023-03-29T21:27:45.384Z,99.90
2023-03-29T21:30:12.172Z,99.90
2023-03-29T21:32:39.649Z,99.90
2023-03-29T21:35:06.805Z,99.90
2023-03-29T21:37:33.531Z,99.90
2023-03-29T21:40:00.177Z,99.90
2023-03-29T21:42:26.829Z,99.90
2023-03-29T21:44:53.557Z,99.90
2023-03-29T21:47:20.373Z,99.90
2023-03-29T21:49:47.218Z,99.90
2023-03-29T21:52:14.531Z,99.90
2023-03-29T21:54:41.178Z,99.90
2023-03-29T21:57:08.116Z,99.90
2023-03-29T21:59:34.881Z,99.90
2023-03-29T22:02:01.704Z,99.90
2023-03-29T22:04:36.453Z,99.90
2023-03-29T22:07:03.544Z,99.90
2023-03-29T22:09:33.129Z,99.90
2023-03-29T22:12:01.557Z,99.90
2023-03-29T22:14:31.020Z,99.90
2023-03-29T22:16:57.648Z,99.90
2023-03-29T22:19:24.469Z,99.90
2023-03-29T22:21:51.446Z,99.90
2023-03-29T22:24:18.265Z,99.90
2023-03-29T22:26:45.074Z,99.90
2023-03-29T22:29:14.130Z,99.90
2023-03-29T22:31:40.900Z,99.90
2023-03-29T22:34:07.590Z,99.90
2023-03-29T22:36:36.086Z,99.90
2023-03-29T22:39:02.807Z,99.90
2023-03-29T22:41:29.564Z,99.90
2023-03-29T22:43:57.121Z,99.90
2023-03-29T22:46:24.294Z,99.90
2023-03-29T22:48:51.324Z,99.90
2023-03-29T22:51:18.125Z,99.90
2023-03-29T22:53:47.000Z,99.90
2023-03-29T22:56:14.365Z,99.90
2023-03-29T22:58:41.121Z,99.90
2023-03-29T23:01:08.385Z,99.90
2023-03-29T23:03:35.556Z,99.90
2023-03-29T23:06:02.415Z,99.90
2023-03-29T23:08:30.281Z,99.90
2023-03-29T23:10:57.132Z,99.90
2023-03-29T23:13:28.757Z,99.90
2023-03-29T23:15:56.892Z,99.90
2023-03-29T23:18:23.775Z,99.90
2023-03-29T23:20:51.366Z,99.90
2023-03-29T23:23:19.127Z,99.90
2023-03-29T23:25:47.498Z,99.90
2023-03-29T23:28:15.262Z,99.90
2023-03-29T23:30:41.885Z,99.90
2023-03-29T23:33:10.553Z,99.90
2023-03-29T23:35:37.788Z,99.90
2023-03-29T23:38:05.793Z,99.90
2023-03-29T23:40:33.296Z,99.90
2023-03-29T23:43:00.014Z,99.90
2023-03-29T23:45:27.762Z,99.90
2023-03-29T23:47:54.484Z,99.90
2023-03-29T23:50:23.867Z,99.90
2023-03-29T23:52:51.612Z,99.90
2023-03-29T23:55:18.495Z,99.90
2023-03-29T23:57:47.573Z,99.90
